createdAt,value
2022-12-22T00:00:38.806Z,98.57
2022-12-22T00:03:35.769Z,98.85
2022-12-22T00:06:21.821Z,98.92
2022-12-22T00:09:07.069Z,98.84
2022-12-22T00:11:51.834Z,99.14
2022-12-22T00:14:38.960Z,98.92
2022-12-22T00:17:34.383Z,99.05
2022-12-22T00:20:21.155Z,99.12
2022-12-22T00:23:06.061Z,98.82
2022-12-22T00:25:52.685Z,98.92
2022-12-22T00:28:37.683Z,98.69
2022-12-22T00:31:22.994Z,99.10
2022-12-22T00:34:08.599Z,99.12
2022-12-22T00:36:53.401Z,98.84
2022-12-22T00:39:38.313Z,98.97
2022-12-22T00:42:23.090Z,98.72
2022-12-22T00:45:07.764Z,98.67
2022-12-22T00:47:52.586Z,98.94
2022-12-22T00:50:37.964Z,98.82
2022-12-22T00:53:23.304Z,98.89
2022-12-22T00:56:08.514Z,98.89
2022-12-22T00:58:54.379Z,99.28
2022-12-22T01:01:39.208Z,98.98
2022-12-22T01:04:24.491Z,98.99
2022-12-22T01:07:09.323Z,99.16
2022-12-22T01:09:54.664Z,99.11
2022-12-22T01:12:42.933Z,98.89
2022-12-22T01:15:37.444Z,99.07
2022-12-22T01:18:23.372Z,98.68
2022-12-22T01:21:09.596Z,98.82
2022-12-22T01:23:55.455Z,98.85
2022-12-22T01:26:40.447Z,98.92
2022-12-22T01:29:25.668Z,98.62
2022-12-22T01:32:10.949Z,98.72
2022-12-22T01:34:56.366Z,98.64
2022-12-22T01:37:41.642Z,98.78
2022-12-22T01:40:35.738Z,98.67
2022-12-22T01:43:20.605Z,98.76
2022-12-22T01:46:05.255Z,98.70
2022-12-22T01:48:51.308Z,98.61
2022-12-22T01:51:43.779Z,98.70
2022-12-22T01:54:30.325Z,98.57
2022-12-22T01:57:15.720Z,98.49
2022-12-22T02:00:02.207Z,98.39
2022-12-22T02:02:51.133Z,98.31
2022-12-22T02:05:38.062Z,98.52
2022-12-22T02:08:22.895Z,98.57
2022-12-22T02:11:19.561Z,98.62
2022-12-22T02:14:04.431Z,98.63
2022-12-22T02:16:55.907Z,98.35
2022-12-22T02:19:52.466Z,98.59
2022-12-22T02:22:51.215Z,98.77
2022-12-22T02:25:42.015Z,98.61
2022-12-22T02:28:29.306Z,98.70
2022-12-22T02:31:15.137Z,98.53
2022-12-22T02:33:59.984Z,98.83
2022-12-22T02:37:03.273Z,98.79
2022-12-22T02:40:20.283Z,98.69
2022-12-22T02:43:16.674Z,98.57
2022-12-22T02:46:12.125Z,98.39
2022-12-22T02:49:08.960Z,98.45
2022-12-22T02:52:02.830Z,98.39
2022-12-22T02:54:49.711Z,98.29
2022-12-22T02:57:39.212Z,98.70
2022-12-22T03:00:25.642Z,98.63
2022-12-22T03:03:11.185Z,98.41
2022-12-22T03:05:56.413Z,97.86
2022-12-22T03:08:41.204Z,97.32
2022-12-22T03:11:26.110Z,97.47
2022-12-22T03:14:10.939Z,97.69
2022-12-22T03:16:55.959Z,97.74
2022-12-22T03:19:40.815Z,97.58
2022-12-22T03:22:25.642Z,97.87
2022-12-22T03:25:10.564Z,97.99
2022-12-22T03:27:36.974Z,98.47
2022-12-22T03:30:03.947Z,98.40
2022-12-22T03:32:30.395Z,99.08
2022-12-22T03:34:56.787Z,99.02
2022-12-22T03:37:23.238Z,99.24
2022-12-22T03:39:49.674Z,98.97
2022-12-22T03:42:34.741Z,99.14
2022-12-22T03:45:19.788Z,99.19
2022-12-22T03:47:46.236Z,98.89
2022-12-22T03:50:12.621Z,99.06
2022-12-22T03:52:39.072Z,99.03
2022-12-22T03:55:06.123Z,98.72
2022-12-22T03:57:32.647Z,99.04
2022-12-22T03:59:59.040Z,98.79
2022-12-22T04:02:25.544Z,98.71
2022-12-22T04:04:51.999Z,98.92
2022-12-22T04:07:18.486Z,98.67
2022-12-22T04:10:04.846Z,98.98
2022-12-22T04:12:50.089Z,98.90
2022-12-22T04:15:16.718Z,98.60
2022-12-22T04:17:43.142Z,98.14
2022-12-22T04:20:10.035Z,98.29
2022-12-22T04:22:36.470Z,98.24
2022-12-22T04:25:03.068Z,98.44
2022-12-22T04:27:29.487Z,98.40
2022-12-22T04:29:55.893Z,98.42
2022-12-22T04:32:22.326Z,98.50
2022-12-22T04:34:48.762Z,98.44
2022-12-22T04:37:17.737Z,98.52
2022-12-22T04:39:44.564Z,98.46
2022-12-22T04:42:10.975Z,98.41
2022-12-22T04:44:37.375Z,98.33
2022-12-22T04:47:03.865Z,98.44
2022-12-22T04:49:30.276Z,98.32
2022-12-22T04:51:56.769Z,98.30
2022-12-22T04:54:23.235Z,98.47
2022-12-22T04:56:50.718Z,98.29
2022-12-22T04:59:17.267Z,98.34
2022-12-22T05:01:43.859Z,98.17
2022-12-22T05:04:10.372Z,97.87
2022-12-22T05:06:36.741Z,98.06
2022-12-22T05:09:03.747Z,98.02
2022-12-22T05:11:30.125Z,98.06
2022-12-22T05:13:59.664Z,98.17
2022-12-22T05:16:28.567Z,97.77
2022-12-22T05:18:55.083Z,97.86
2022-12-22T05:21:23.017Z,97.69
2022-12-22T05:23:50.195Z,97.82
2022-12-22T05:26:18.452Z,98.25
2022-12-22T05:28:46.679Z,98.12
2022-12-22T05:31:21.694Z,97.76
2022-12-22T05:33:48.556Z,97.46
2022-12-22T05:36:15.685Z,97.57
2022-12-22T05:38:44.449Z,97.78
2022-12-22T05:41:11.467Z,98.07
2022-12-22T05:43:38.005Z,97.99
2022-12-22T05:46:06.414Z,97.97
2022-12-22T05:48:37.973Z,98.02
2022-12-22T05:51:07.094Z,98.17
2022-12-22T05:53:33.549Z,98.30
2022-12-22T05:56:00.155Z,98.14
2022-12-22T05:58:26.607Z,98.37
2022-12-22T06:00:56.609Z,98.57
2022-12-22T06:03:23.190Z,98.35
2022-12-22T06:05:50.481Z,98.57
2022-12-22T06:08:16.935Z,99.02
2022-12-22T06:10:43.473Z,99.12
2022-12-22T06:13:09.927Z,98.80
2022-12-22T06:15:36.437Z,99.49
2022-12-22T06:18:02.848Z,98.87
2022-12-22T06:20:29.327Z,98.72
2022-12-22T06:22:55.761Z,98.97
2022-12-22T06:25:22.200Z,99.22
2022-12-22T06:27:48.684Z,98.73
2022-12-22T06:30:16.213Z,99.07
2022-12-22T06:32:42.925Z,98.75
2022-12-22T06:35:10.079Z,98.74
2022-12-22T06:37:36.587Z,98.49
2022-12-22T06:40:03.612Z,98.77
2022-12-22T06:42:48.638Z,99.13
2022-12-22T06:45:15.132Z,98.75
2022-12-22T06:47:41.535Z,99.09
2022-12-22T06:50:08.632Z,98.92
2022-12-22T06:52:35.251Z,98.66
2022-12-22T06:55:02.317Z,98.33
2022-12-22T06:57:29.121Z,98.77
2022-12-22T06:59:57.882Z,98.70
2022-12-22T07:02:25.063Z,98.57
2022-12-22T07:04:51.762Z,98.64
2022-12-22T07:07:18.162Z,98.64
2022-12-22T07:09:44.657Z,98.67
2022-12-22T07:12:11.081Z,98.47
2022-12-22T07:14:37.501Z,98.12
2022-12-22T07:17:04.035Z,97.81
2022-12-22T07:19:30.429Z,97.89
2022-12-22T07:21:56.845Z,97.98
2022-12-22T07:24:25.907Z,97.87
2022-12-22T07:26:52.967Z,98.39
2022-12-22T07:29:19.472Z,98.23
2022-12-22T07:31:46.212Z,98.13
2022-12-22T07:34:13.047Z,97.57
2022-12-22T07:36:39.508Z,98.22
2022-12-22T07:39:06.745Z,97.61
2022-12-22T07:41:51.701Z,97.86
2022-12-22T07:44:18.202Z,98.00
2022-12-22T07:46:44.740Z,97.99
2022-12-22T07:49:30.471Z,98.00
2022-12-22T07:51:58.004Z,98.08
2022-12-22T07:54:25.724Z,98.29
2022-12-22T07:56:52.194Z,98.38
2022-12-22T07:59:19.782Z,98.72
2022-12-22T08:01:54.076Z,99.06
2022-12-22T08:04:23.566Z,98.47
2022-12-22T08:06:49.975Z,98.72
2022-12-22T08:09:18.146Z,98.42
2022-12-22T08:14:43.316Z,98.39
2022-12-22T08:17:09.704Z,98.79
2022-12-22T08:19:36.135Z,99.04
2022-12-22T08:22:02.652Z,98.90
2022-12-22T08:24:29.068Z,98.83
2022-12-22T08:26:59.996Z,99.19
2022-12-22T08:29:35.471Z,98.94
2022-12-22T08:32:02.497Z,98.94
2022-12-22T08:34:29.063Z,99.00
2022-12-22T08:36:59.298Z,99.02
2022-12-22T08:39:28.005Z,98.37
2022-12-22T08:41:54.951Z,98.09
2022-12-22T08:44:26.198Z,97.96
2022-12-22T08:46:54.240Z,97.59
2022-12-22T08:49:21.110Z,97.38
2022-12-22T08:51:48.009Z,97.58
2022-12-22T08:54:15.204Z,97.99
2022-12-22T08:56:42.325Z,98.06
2022-12-22T08:59:09.635Z,97.87
2022-12-22T09:01:38.443Z,98.07
2022-12-22T09:04:06.764Z,98.22
2022-12-22T09:06:40.172Z,98.29
2022-12-22T09:09:10.324Z,97.86
2022-12-22T09:11:37.228Z,98.02
2022-12-22T09:14:04.738Z,97.79
2022-12-22T09:16:33.456Z,97.95
2022-12-22T09:19:00.931Z,98.37
2022-12-22T09:21:28.452Z,98.31
2022-12-22T09:23:55.581Z,98.54
2022-12-22T09:26:24.261Z,98.56
2022-12-22T09:28:51.164Z,98.71
2022-12-22T09:31:20.530Z,98.39
2022-12-22T09:33:48.111Z,98.22
2022-12-22T09:36:18.031Z,98.16
2022-12-22T09:38:44.682Z,98.27
2022-12-22T09:41:16.309Z,97.73
2022-12-22T09:43:43.196Z,97.77
2022-12-22T09:46:22.552Z,98.29
2022-12-22T09:48:49.811Z,98.29
2022-12-22T09:51:22.691Z,98.38
2022-12-22T09:53:55.493Z,98.04
2022-12-22T09:56:23.986Z,98.41
2022-12-22T09:58:50.423Z,98.48
2022-12-22T10:01:55.118Z,98.38
2022-12-22T10:04:49.190Z,98.04
2022-12-22T10:07:33.812Z,97.99
2022-12-22T10:10:15.539Z,97.82
2022-12-22T10:12:41.961Z,98.12
2022-12-22T10:15:15.483Z,97.79
2022-12-22T10:17:51.547Z,97.89
2022-12-22T10:20:29.605Z,98.27
2022-12-22T10:23:16.130Z,97.97
2022-12-22T10:26:27.512Z,98.22
2022-12-22T10:28:49.603Z,98.04
2022-12-22T10:31:25.854Z,98.15
2022-12-22T10:33:55.136Z,98.16
2022-12-22T10:36:34.656Z,98.67
2022-12-22T10:39:11.118Z,98.87
2022-12-22T10:41:46.545Z,98.55
2022-12-22T10:44:15.876Z,98.44
2022-12-22T10:46:53.723Z,98.36
2022-12-22T10:52:31.013Z,97.93
2022-12-22T10:55:17.018Z,98.04
2022-12-22T10:57:43.778Z,98.69
2022-12-22T11:00:26.409Z,98.43
2022-12-22T11:02:55.091Z,98.89
2022-12-22T11:05:22.098Z,98.15
2022-12-22T11:07:48.752Z,98.19
2022-12-22T11:10:15.261Z,98.44
2022-12-22T11:12:54.054Z,97.94
2022-12-22T11:15:45.504Z,98.54
2022-12-22T11:18:52.376Z,98.75
2022-12-22T11:21:37.666Z,98.28
2022-12-22T11:24:25.202Z,98.27
2022-12-22T11:27:26.284Z,98.42
2022-12-22T11:30:10.624Z,98.06
2022-12-22T11:33:05.169Z,98.02
2022-12-22T11:35:42.276Z,97.82
2022-12-22T11:38:27.258Z,97.57
2022-12-22T11:41:24.981Z,96.88
2022-12-22T11:44:13.809Z,97.04
2022-12-22T11:46:54.882Z,96.94
2022-12-22T11:49:42.388Z,96.99
2022-12-22T11:52:33.776Z,96.93
2022-12-22T11:55:31.267Z,97.02
2022-12-22T11:58:19.820Z,96.65
2022-12-22T12:01:15.284Z,97.01
2022-12-22T12:04:01.076Z,97.72
2022-12-22T12:06:48.869Z,97.73
2022-12-22T12:09:36.075Z,98.14
2022-12-22T12:12:15.316Z,97.59
2022-12-22T12:15:01.017Z,97.66
2022-12-22T12:17:50.036Z,97.77
2022-12-22T12:20:55.245Z,97.85
2022-12-22T12:23:47.868Z,96.79
2022-12-22T12:26:23.419Z,97.09
2022-12-22T12:29:14.895Z,97.13
2022-12-22T12:32:00.922Z,96.69
2022-12-22T12:34:31.256Z,96.50
2022-12-22T12:37:08.925Z,96.32
2022-12-22T12:40:27.328Z,96.87
2022-12-22T12:42:55.108Z,96.40
2022-12-22T12:45:51.289Z,96.60
2022-12-22T12:48:20.899Z,96.67
2022-12-22T12:50:48.299Z,96.65
2022-12-22T12:53:15.507Z,96.68
2022-12-22T12:55:43.049Z,96.99
2022-12-22T12:58:11.265Z,97.14
2022-12-22T13:00:43.126Z,97.54
2022-12-22T13:04:01.173Z,97.68
2022-12-22T13:06:51.975Z,97.52
2022-12-22T13:09:49.248Z,97.32
2022-12-22T13:12:48.327Z,96.99
2022-12-22T13:15:29.683Z,97.02
2022-12-22T13:17:56.688Z,96.82
2022-12-22T13:20:28.117Z,97.00
2022-12-22T13:22:57.159Z,97.22
2022-12-22T13:25:27.182Z,97.00
2022-12-22T13:27:56.629Z,97.24
2022-12-22T13:30:23.772Z,96.97
2022-12-22T13:32:50.473Z,96.73
2022-12-22T13:35:33.539Z,96.72
2022-12-22T13:38:01.628Z,97.05
2022-12-22T13:40:40.429Z,96.81
2022-12-22T13:43:16.443Z,96.98
2022-12-22T13:45:48.810Z,97.20
2022-12-22T13:48:20.146Z,97.41
2022-12-22T13:50:53.197Z,97.37
2022-12-22T13:56:39.535Z,97.92
2022-12-22T13:59:18.663Z,97.73
2022-12-22T14:01:50.729Z,97.79
2022-12-22T14:04:19.704Z,97.62
2022-12-22T14:06:46.335Z,97.92
2022-12-22T14:09:23.368Z,97.16
2022-12-22T14:11:57.817Z,96.78
2022-12-22T14:14:28.089Z,97.72
2022-12-22T14:17:00.602Z,98.03
2022-12-22T14:19:32.951Z,98.40
2022-12-22T14:22:14.406Z,98.42
2022-12-22T14:24:54.445Z,98.42
2022-12-22T14:27:37.428Z,98.68
2022-12-22T14:30:14.396Z,99.02
2022-12-22T14:32:45.753Z,99.04
2022-12-22T14:35:20.408Z,98.94
2022-12-22T14:38:09.964Z,99.60
2022-12-22T14:40:39.854Z,99.22
2022-12-22T14:43:18.456Z,99.37
2022-12-22T14:45:47.196Z,99.12
2022-12-22T14:48:21.357Z,99.33
2022-12-22T14:50:53.164Z,99.32
2022-12-22T14:53:31.120Z,100.00
2022-12-22T14:55:57.581Z,100.00
2022-12-22T14:58:34.175Z,100.00
2022-12-22T15:01:23.113Z,100.00
2022-12-22T15:04:04.870Z,100.00
2022-12-22T15:06:35.603Z,100.00
2022-12-22T15:09:06.404Z,100.00
2022-12-22T15:11:35.691Z,100.00
2022-12-22T15:14:03.118Z,100.00
2022-12-22T15:16:30.155Z,100.00
2022-12-22T15:18:57.106Z,100.00
2022-12-22T15:21:23.602Z,100.00
2022-12-22T15:23:50.013Z,100.00
2022-12-22T15:26:16.541Z,100.00
2022-12-22T15:28:48.657Z,100.00
2022-12-22T15:31:17.293Z,100.00
2022-12-22T15:33:44.856Z,100.00
2022-12-22T15:36:13.758Z,100.00
2022-12-22T15:38:42.328Z,100.00
2022-12-22T15:41:08.768Z,100.00
2022-12-22T15:43:57.271Z,100.00
2022-12-22T15:46:24.618Z,100.00
2022-12-22T15:48:51.350Z,100.00
2022-12-22T15:51:40.496Z,100.00
2022-12-22T15:54:12.032Z,100.00
2022-12-22T15:56:39.880Z,100.00
2022-12-22T15:59:09.989Z,100.00
2022-12-22T16:01:36.564Z,100.00
2022-12-22T16:04:03.036Z,100.00
2022-12-22T16:06:33.606Z,100.00
2022-12-22T16:09:00.332Z,100.00
2022-12-22T16:11:26.695Z,100.00
2022-12-22T16:13:53.264Z,100.00
2022-12-22T16:16:19.681Z,100.00
2022-12-22T16:18:46.173Z,100.00
2022-12-22T16:21:30.009Z,100.00
2022-12-22T16:23:57.017Z,100.00
2022-12-22T16:26:23.683Z,100.00
2022-12-22T16:28:50.437Z,100.00
2022-12-22T16:31:25.276Z,100.00
2022-12-22T16:33:52.044Z,100.00
2022-12-22T16:36:18.812Z,100.00
2022-12-22T16:38:45.897Z,100.00
2022-12-22T16:41:35.177Z,100.00
2022-12-22T16:44:05.915Z,100.00
2022-12-22T16:46:36.240Z,100.00
2022-12-22T16:49:02.765Z,100.00
2022-12-22T16:51:34.139Z,100.00
2022-12-22T16:54:01.661Z,100.00
2022-12-22T16:56:30.385Z,100.00
2022-12-22T16:58:57.596Z,100.00
2022-12-22T17:01:46.588Z,100.00
2022-12-22T17:04:22.981Z,100.00
2022-12-22T17:06:50.775Z,100.00
2022-12-22T17:09:28.587Z,100.00
2022-12-22T17:11:55.615Z,99.99
2022-12-22T17:14:30.117Z,99.32
2022-12-22T17:16:56.796Z,99.48
2022-12-22T17:19:23.427Z,99.35
2022-12-22T17:21:53.228Z,98.84
2022-12-22T17:24:27.796Z,98.95
2022-12-22T17:26:54.922Z,98.79
2022-12-22T17:29:25.971Z,99.02
2022-12-22T17:31:56.417Z,99.24
2022-12-22T17:34:25.255Z,99.57
2022-12-22T17:36:52.339Z,99.79
2022-12-22T17:39:43.949Z,99.30
2022-12-22T17:42:19.040Z,99.67
2022-12-22T17:44:45.971Z,99.90
2022-12-22T17:47:14.368Z,99.87
2022-12-22T17:49:42.216Z,99.51
2022-12-22T17:52:23.322Z,99.54
2022-12-22T17:54:52.433Z,99.95
2022-12-22T17:57:29.244Z,100.00
2022-12-22T17:59:55.726Z,100.00
2022-12-22T18:02:25.668Z,100.00
2022-12-22T18:04:52.524Z,100.00
2022-12-22T18:07:22.072Z,100.00
2022-12-22T18:09:51.046Z,100.00
2022-12-22T18:12:24.651Z,100.00
2022-12-22T18:14:51.546Z,100.00
2022-12-22T18:17:28.580Z,100.00
2022-12-22T18:19:59.731Z,100.00
2022-12-22T18:22:29.101Z,100.00
2022-12-22T18:24:55.736Z,100.00
2022-12-22T18:27:23.708Z,100.00
2022-12-22T18:29:50.164Z,100.00
2022-12-22T18:32:26.299Z,100.00
2022-12-22T18:35:02.766Z,100.00
2022-12-22T18:37:29.242Z,100.00
2022-12-22T18:39:55.671Z,100.00
2022-12-22T18:42:24.684Z,100.00
2022-12-22T18:44:57.286Z,100.00
2022-12-22T18:47:23.759Z,100.00
2022-12-22T18:49:50.857Z,100.00
2022-12-22T18:52:23.533Z,100.00
2022-12-22T18:54:55.832Z,100.00
2022-12-22T18:57:22.252Z,100.00
2022-12-22T18:59:49.134Z,100.00
2022-12-22T19:02:22.967Z,100.00
2022-12-22T19:04:50.354Z,100.00
2022-12-22T19:07:23.475Z,100.00
2022-12-22T19:09:50.342Z,100.00
2022-12-22T19:12:25.142Z,100.00
2022-12-22T19:14:57.259Z,100.00
2022-12-22T19:17:27.126Z,100.00
2022-12-22T19:19:53.833Z,100.00
2022-12-22T19:22:21.981Z,100.00
2022-12-22T19:24:49.052Z,100.00
2022-12-22T19:27:27.394Z,100.00
2022-12-22T19:30:03.945Z,100.00
2022-12-22T19:32:38.470Z,100.00
2022-12-22T19:35:13.873Z,100.00
2022-12-22T19:37:40.361Z,100.00
2022-12-22T19:40:07.505Z,100.00
2022-12-22T19:42:35.206Z,100.00
2022-12-22T19:45:10.234Z,100.00
2022-12-22T19:47:38.305Z,100.00
2022-12-22T19:50:07.295Z,100.00
2022-12-22T19:52:33.760Z,100.00
2022-12-22T19:55:00.805Z,100.00
2022-12-22T19:57:27.382Z,100.00
2022-12-22T19:59:54.263Z,100.00
2022-12-22T20:02:21.317Z,100.00
2022-12-22T20:04:49.126Z,100.00
2022-12-22T20:07:17.186Z,100.00
2022-12-22T20:09:44.157Z,100.00
2022-12-22T20:12:16.527Z,100.00
2022-12-22T20:14:54.507Z,100.00
2022-12-22T20:17:28.839Z,100.00
2022-12-22T20:19:55.285Z,100.00
2022-12-22T20:22:23.088Z,100.00
2022-12-22T20:24:50.607Z,100.00
2022-12-22T20:27:36.111Z,100.00
2022-12-22T20:30:03.034Z,100.00
2022-12-22T20:32:29.506Z,100.00
2022-12-22T20:35:11.904Z,100.00
2022-12-22T20:37:51.349Z,99.97
2022-12-22T20:40:34.977Z,100.00
2022-12-22T20:43:05.064Z,100.00
2022-12-22T20:49:10.243Z,100.00
2022-12-22T20:52:11.372Z,100.00
2022-12-22T20:54:37.796Z,100.00
2022-12-22T20:57:04.303Z,100.00
2022-12-22T20:59:30.943Z,100.00
2022-12-22T21:01:57.465Z,100.00
2022-12-22T21:04:24.197Z,99.96
2022-12-22T21:06:53.543Z,100.00
2022-12-22T21:09:21.140Z,100.00
2022-12-22T21:11:47.652Z,100.00
2022-12-22T21:14:14.563Z,99.91
2022-12-22T21:16:42.274Z,100.00
2022-12-22T21:19:17.018Z,99.87
2022-12-22T21:21:43.506Z,100.00
2022-12-22T21:24:09.918Z,99.69
2022-12-22T21:26:41.747Z,99.85
2022-12-22T21:29:50.802Z,99.64
2022-12-22T21:32:17.269Z,99.27
2022-12-22T21:34:43.670Z,99.25
2022-12-22T21:37:18.207Z,98.82
2022-12-22T21:39:44.866Z,98.50
2022-12-22T21:42:19.549Z,98.47
2022-12-22T21:44:46.095Z,98.45
2022-12-22T21:47:14.571Z,98.58
2022-12-22T21:49:41.010Z,99.07
2022-12-22T21:52:07.480Z,98.79
2022-12-22T21:54:33.893Z,98.25
2022-12-22T21:57:00.599Z,98.14
2022-12-22T21:59:27.369Z,98.12
2022-12-22T22:01:54.448Z,98.16
2022-12-22T22:04:21.541Z,98.34
2022-12-22T22:06:48.000Z,98.40
2022-12-22T22:09:14.572Z,98.77
2022-12-22T22:11:59.643Z,98.73
2022-12-22T22:14:29.596Z,99.07
2022-12-22T22:16:56.247Z,99.02
2022-12-22T22:19:22.751Z,99.25
2022-12-22T22:21:49.416Z,99.31
2022-12-22T22:36:05.685Z,98.12
2022-12-22T22:38:57.148Z,97.85
2022-12-22T22:44:36.090Z,98.09
2022-12-22T22:47:03.104Z,98.22
2022-12-22T22:49:31.207Z,98.45
2022-12-22T22:52:01.050Z,98.10
2022-12-22T22:54:27.673Z,98.27
2022-12-22T22:56:54.591Z,98.42
2022-12-22T22:59:21.244Z,98.12
2022-12-22T23:01:47.954Z,98.14
2022-12-22T23:04:14.688Z,97.81
2022-12-22T23:06:44.399Z,98.24
2022-12-22T23:09:10.941Z,97.93
2022-12-22T23:11:43.407Z,97.99
2022-12-22T23:14:10.235Z,98.03
2022-12-22T23:16:38.721Z,97.94
2022-12-22T23:19:05.636Z,97.71
2022-12-22T23:21:32.263Z,97.69
2022-12-22T23:23:58.758Z,97.89
2022-12-22T23:26:25.793Z,97.76
2022-12-22T23:29:02.621Z,98.17
2022-12-22T23:31:36.312Z,98.03
2022-12-22T23:34:06.014Z,98.18
2022-12-22T23:36:33.424Z,98.58
2022-12-22T23:38:59.952Z,98.50
2022-12-22T23:41:26.537Z,98.77
2022-12-22T23:43:53.501Z,98.80
2022-12-22T23:46:20.033Z,98.79
2022-12-22T23:48:51.466Z,98.44
2022-12-22T23:51:28.406Z,97.87
2022-12-22T23:53:56.087Z,98.14
2022-12-22T23:56:22.553Z,98.17
2022-12-22T23:58:54.406Z,98.08
